CheckWX is a tool to help pilots better visualize weather data.  It is not intended as a substitute for an official pre-flight weather briefing.

03:08:33 UTC

KINW TAF
Winslow-Lindbergh Regional Airport
Winslow, Arizona, USA
KINW 012357Z 0200/0224 23020G32KT P6SM SCT250 FM020300 22012G21KT P6SM FEW250 FM021800 23024G35KT P6SM SCT090

Apr-2@
00:00 UTC

Apr-2 @ 00:00 UTC

Apr-2@
03:00 UTC

Apr-2 @ 03:00 UTC

TAF KINW 012357Z 0200/0224 23020G32KT P6SM SCT250

Expired

Wind
  • 230° at 20 KTS
  • {Gusting to 32 KTS
Cloud Levels
  • Scattered at 25,000' AGL

Apr-2@
03:00 UTC

Apr-2 @ 03:00 UTC

Apr-2@
18:00 UTC

Apr-2 @ 18:00 UTC

FM020300 22012G21KT P6SM FEW250

From

From Standard forecast or significant change

Wind
  • 220° at 12 KTS
  • {Gusting to 21 KTS
Cloud Levels
  • Few at 25,000' AGL

Apr-2@
18:00 UTC

Apr-2 @ 18:00 UTC

Apr-3@
00:00 UTC

Apr-3 @ 00:00 UTC

FM021800 23024G35KT P6SM SCT090

From

From Standard forecast or significant change

Wind
  • 230° at 24 KTS
  • {Gusting to 35 KTS
Cloud Levels
  • Scattered at 9,000' AGL